sensor_id;sensor_type;location;lat;lon;timestamp;P1;durP1;ratioP1;P2;durP2;ratioP2
2972;SDS011;1496;51.404;7.232;2023-11-21T00:02:19;14.83;;;9.00;;
2972;SDS011;1496;51.404;7.232;2023-11-21T00:04:47;13.13;;;7.97;;
2972;SDS011;1496;51.404;7.232;2023-11-21T00:07:13;13.20;;;7.40;;
2972;SDS011;1496;51.404;7.232;2023-11-21T00:09:40;14.67;;;8.60;;
2972;SDS011;1496;51.404;7.232;2023-11-21T00:12:06;14.50;;;7.80;;
2972;SDS011;1496;51.404;7.232;2023-11-21T00:14:38;11.20;;;7.60;;
2972;SDS011;1496;51.404;7.232;2023-11-21T00:17:03;22.03;;;9.13;;
2972;SDS011;1496;51.404;7.232;2023-11-21T00:19:30;11.97;;;7.40;;
2972;SDS011;1496;51.404;7.232;2023-11-21T00:21:56;12.13;;;8.60;;
2972;SDS011;1496;51.404;7.232;2023-11-21T00:24:23;12.17;;;7.60;;
2972;SDS011;1496;51.404;7.232;2023-11-21T00:26:50;23.50;;;8.10;;
2972;SDS011;1496;51.404;7.232;2023-11-21T00:29:16;12.90;;;7.20;;
2972;SDS011;1496;51.404;7.232;2023-11-21T00:31:43;18.37;;;6.90;;
2972;SDS011;1496;51.404;7.232;2023-11-21T00:34:11;11.70;;;7.73;;
2972;SDS011;1496;51.404;7.232;2023-11-21T00:36:37;11.23;;;7.70;;
2972;SDS011;1496;51.404;7.232;2023-11-21T00:39:03;11.67;;;7.50;;
2972;SDS011;1496;51.404;7.232;2023-11-21T00:41:31;14.27;;;6.57;;
2972;SDS011;1496;51.404;7.232;2023-11-21T00:43:57;15.57;;;7.50;;
2972;SDS011;1496;51.404;7.232;2023-11-21T00:46:22;17.30;;;6.87;;
2972;SDS011;1496;51.404;7.232;2023-11-21T00:48:49;10.37;;;7.47;;
2972;SDS011;1496;51.404;7.232;2023-11-21T00:51:15;14.57;;;8.67;;
2972;SDS011;1496;51.404;7.232;2023-11-21T00:53:42;14.10;;;8.83;;
2972;SDS011;1496;51.404;7.232;2023-11-21T00:56:08;13.40;;;8.97;;
2972;SDS011;1496;51.404;7.232;2023-11-21T00:58:33;13.80;;;9.53;;
2972;SDS011;1496;51.404;7.232;2023-11-21T01:00:59;12.37;;;8.50;;
2972;SDS011;1496;51.404;7.232;2023-11-21T01:03:25;14.93;;;8.40;;
2972;SDS011;1496;51.404;7.232;2023-11-21T01:05:50;12.77;;;8.90;;
2972;SDS011;1496;51.404;7.232;2023-11-21T01:08:16;16.73;;;7.97;;
2972;SDS011;1496;51.404;7.232;2023-11-21T01:10:42;14.37;;;8.27;;
2972;SDS011;1496;51.404;7.232;2023-11-21T01:13:07;22.33;;;8.60;;
2972;SDS011;1496;51.404;7.232;2023-11-21T01:15:33;20.50;;;8.80;;
2972;SDS011;1496;51.404;7.232;2023-11-21T01:17:59;16.43;;;9.37;;
2972;SDS011;1496;51.404;7.232;2023-11-21T01:20:25;15.67;;;9.27;;
2972;SDS011;1496;51.404;7.232;2023-11-21T01:22:51;21.73;;;10.10;;
2972;SDS011;1496;51.404;7.232;2023-11-21T01:25:17;16.10;;;9.40;;
2972;SDS011;1496;51.404;7.232;2023-11-21T01:27:42;18.17;;;9.97;;
2972;SDS011;1496;51.404;7.232;2023-11-21T01:30:09;19.07;;;9.50;;
2972;SDS011;1496;51.404;7.232;2023-11-21T01:32:38;15.43;;;9.27;;
2972;SDS011;1496;51.404;7.232;2023-11-21T01:35:05;15.60;;;8.90;;
2972;SDS011;1496;51.404;7.232;2023-11-21T01:37:31;12.47;;;8.20;;
2972;SDS011;1496;51.404;7.232;2023-11-21T01:39:58;12.00;;;8.50;;
2972;SDS011;1496;51.404;7.232;2023-11-21T01:42:24;15.77;;;9.83;;
2972;SDS011;1496;51.404;7.232;2023-11-21T01:44:50;16.77;;;9.73;;
2972;SDS011;1496;51.404;7.232;2023-11-21T01:47:17;15.80;;;8.37;;
2972;SDS011;1496;51.404;7.232;2023-11-21T01:49:43;15.80;;;8.60;;
2972;SDS011;1496;51.404;7.232;2023-11-21T01:52:10;18.83;;;10.37;;
2972;SDS011;1496;51.404;7.232;2023-11-21T01:54:36;11.73;;;7.30;;
2972;SDS011;1496;51.404;7.232;2023-11-21T01:57:03;14.90;;;8.80;;
2972;SDS011;1496;51.404;7.232;2023-11-21T01:59:37;19.30;;;9.00;;
2972;SDS011;1496;51.404;7.232;2023-11-21T02:02:07;20.13;;;8.00;;
2972;SDS011;1496;51.404;7.232;2023-11-21T02:04:35;15.80;;;9.33;;
2972;SDS011;1496;51.404;7.232;2023-11-21T02:07:02;17.23;;;8.67;;
2972;SDS011;1496;51.404;7.232;2023-11-21T02:09:31;12.30;;;8.10;;
2972;SDS011;1496;51.404;7.232;2023-11-21T02:11:58;17.83;;;8.33;;
2972;SDS011;1496;51.404;7.232;2023-11-21T02:14:25;14.77;;;8.87;;
2972;SDS011;1496;51.404;7.232;2023-11-21T02:16:53;15.87;;;9.10;;
2972;SDS011;1496;51.404;7.232;2023-11-21T02:19:19;12.83;;;8.37;;
2972;SDS011;1496;51.404;7.232;2023-11-21T02:21:50;10.40;;;7.43;;
2972;SDS011;1496;51.404;7.232;2023-11-21T02:24:26;12.30;;;7.90;;
2972;SDS011;1496;51.404;7.232;2023-11-21T02:26:52;19.03;;;9.60;;
2972;SDS011;1496;51.404;7.232;2023-11-21T02:29:18;18.30;;;9.10;;
2972;SDS011;1496;51.404;7.232;2023-11-21T02:31:47;16.87;;;9.87;;
2972;SDS011;1496;51.404;7.232;2023-11-21T02:34:15;15.67;;;8.83;;
2972;SDS011;1496;51.404;7.232;2023-11-21T02:36:41;15.93;;;9.27;;
2972;SDS011;1496;51.404;7.232;2023-11-21T02:39:08;19.10;;;9.30;;
2972;SDS011;1496;51.404;7.232;2023-11-21T02:41:34;19.10;;;9.07;;
2972;SDS011;1496;51.404;7.232;2023-11-21T02:44:00;17.23;;;9.10;;
2972;SDS011;1496;51.404;7.232;2023-11-21T02:46:26;19.20;;;9.63;;
2972;SDS011;1496;51.404;7.232;2023-11-21T02:48:52;23.53;;;8.73;;
2972;SDS011;1496;51.404;7.232;2023-11-21T02:51:19;14.53;;;8.60;;
2972;SDS011;1496;51.404;7.232;2023-11-21T02:53:45;18.07;;;9.93;;
2972;SDS011;1496;51.404;7.232;2023-11-21T02:56:12;15.40;;;9.17;;
2972;SDS011;1496;51.404;7.232;2023-11-21T02:58:41;19.73;;;9.83;;
2972;SDS011;1496;51.404;7.232;2023-11-21T03:01:09;21.73;;;10.07;;
2972;SDS011;1496;51.404;7.232;2023-11-21T03:03:36;18.80;;;9.50;;
2972;SDS011;1496;51.404;7.232;2023-11-21T03:06:05;17.53;;;9.80;;
2972;SDS011;1496;51.404;7.232;2023-11-21T03:08:31;14.53;;;7.87;;
2972;SDS011;1496;51.404;7.232;2023-11-21T03:10:57;15.20;;;9.40;;
2972;SDS011;1496;51.404;7.232;2023-11-21T03:13:23;19.30;;;9.97;;
2972;SDS011;1496;51.404;7.232;2023-11-21T03:15:49;16.70;;;9.73;;
2972;SDS011;1496;51.404;7.232;2023-11-21T03:18:15;17.50;;;10.03;;
2972;SDS011;1496;51.404;7.232;2023-11-21T03:20:41;17.17;;;10.23;;
2972;SDS011;1496;51.404;7.232;2023-11-21T03:23:11;17.57;;;9.00;;
2972;SDS011;1496;51.404;7.232;2023-11-21T03:25:37;20.37;;;9.40;;
2972;SDS011;1496;51.404;7.232;2023-11-21T03:28:02;17.10;;;9.53;;
2972;SDS011;1496;51.404;7.232;2023-11-21T03:30:28;18.20;;;9.00;;
2972;SDS011;1496;51.404;7.232;2023-11-21T03:32:54;19.17;;;9.73;;
2972;SDS011;1496;51.404;7.232;2023-11-21T03:35:20;14.47;;;8.57;;
2972;SDS011;1496;51.404;7.232;2023-11-21T03:37:46;20.17;;;9.93;;
2972;SDS011;1496;51.404;7.232;2023-11-21T03:40:12;17.00;;;8.80;;
2972;SDS011;1496;51.404;7.232;2023-11-21T03:42:38;14.10;;;7.53;;
2972;SDS011;1496;51.404;7.232;2023-11-21T03:45:05;14.10;;;8.13;;
2972;SDS011;1496;51.404;7.232;2023-11-21T03:47:31;14.27;;;8.50;;
2972;SDS011;1496;51.404;7.232;2023-11-21T03:49:57;17.80;;;8.03;;
2972;SDS011;1496;51.404;7.232;2023-11-21T03:52:23;17.77;;;9.00;;
2972;SDS011;1496;51.404;7.232;2023-11-21T03:54:49;15.43;;;8.67;;
2972;SDS011;1496;51.404;7.232;2023-11-21T03:57:15;19.60;;;10.37;;
2972;SDS011;1496;51.404;7.232;2023-11-21T03:59:41;15.60;;;7.60;;
2972;SDS011;1496;51.404;7.232;2023-11-21T04:02:08;20.20;;;8.50;;
2972;SDS011;1496;51.404;7.232;2023-11-21T04:04:35;17.30;;;9.37;;
2972;SDS011;1496;51.404;7.232;2023-11-21T04:07:01;15.63;;;8.60;;
2972;SDS011;1496;51.404;7.232;2023-11-21T04:09:26;19.83;;;8.87;;
2972;SDS011;1496;51.404;7.232;2023-11-21T04:11:53;15.63;;;8.27;;
2972;SDS011;1496;51.404;7.232;2023-11-21T04:14:19;15.07;;;8.30;;
2972;SDS011;1496;51.404;7.232;2023-11-21T04:16:45;18.23;;;7.90;;
2972;SDS011;1496;51.404;7.232;2023-11-21T04:19:11;16.83;;;9.37;;
2972;SDS011;1496;51.404;7.232;2023-11-21T04:21:39;13.37;;;8.07;;
2972;SDS011;1496;51.404;7.232;2023-11-21T04:24:06;20.67;;;8.13;;
2972;SDS011;1496;51.404;7.232;2023-11-21T04:26:32;14.00;;;8.77;;
2972;SDS011;1496;51.404;7.232;2023-11-21T04:28:57;18.37;;;9.47;;
2972;SDS011;1496;51.404;7.232;2023-11-21T04:31:23;18.50;;;8.70;;
2972;SDS011;1496;51.404;7.232;2023-11-21T04:33:49;24.00;;;9.90;;
2972;SDS011;1496;51.404;7.232;2023-11-21T04:36:15;18.10;;;9.40;;
2972;SDS011;1496;51.404;7.232;2023-11-21T04:38:40;15.07;;;9.50;;
2972;SDS011;1496;51.404;7.232;2023-11-21T04:41:06;19.60;;;9.57;;
2972;SDS011;1496;51.404;7.232;2023-11-21T04:43:32;18.80;;;11.10;;
2972;SDS011;1496;51.404;7.232;2023-11-21T04:45:57;13.63;;;9.40;;
2972;SDS011;1496;51.404;7.232;2023-11-21T04:48:23;18.10;;;9.53;;
2972;SDS011;1496;51.404;7.232;2023-11-21T04:50:49;19.70;;;9.67;;
2972;SDS011;1496;51.404;7.232;2023-11-21T04:53:14;20.60;;;10.33;;
2972;SDS011;1496;51.404;7.232;2023-11-21T04:55:40;18.27;;;10.30;;
2972;SDS011;1496;51.404;7.232;2023-11-21T04:58:06;26.50;;;9.73;;
2972;SDS011;1496;51.404;7.232;2023-11-21T05:00:33;25.33;;;12.60;;
2972;SDS011;1496;51.404;7.232;2023-11-21T05:02:59;23.33;;;11.10;;
2972;SDS011;1496;51.404;7.232;2023-11-21T05:05:26;20.80;;;11.47;;
2972;SDS011;1496;51.404;7.232;2023-11-21T05:07:52;16.00;;;9.73;;
2972;SDS011;1496;51.404;7.232;2023-11-21T05:10:18;19.07;;;9.03;;
2972;SDS011;1496;51.404;7.232;2023-11-21T05:12:45;21.90;;;10.23;;
2972;SDS011;1496;51.404;7.232;2023-11-21T05:15:13;15.30;;;8.97;;
2972;SDS011;1496;51.404;7.232;2023-11-21T05:17:40;24.50;;;9.50;;
2972;SDS011;1496;51.404;7.232;2023-11-21T05:20:09;20.23;;;9.93;;
2972;SDS011;1496;51.404;7.232;2023-11-21T05:22:37;19.93;;;10.27;;
2972;SDS011;1496;51.404;7.232;2023-11-21T05:25:04;15.27;;;8.30;;
2972;SDS011;1496;51.404;7.232;2023-11-21T05:27:30;16.23;;;8.90;;
2972;SDS011;1496;51.404;7.232;2023-11-21T05:29:56;16.40;;;8.60;;
2972;SDS011;1496;51.404;7.232;2023-11-21T05:32:23;19.13;;;9.13;;
2972;SDS011;1496;51.404;7.232;2023-11-21T05:34:49;20.67;;;8.97;;
2972;SDS011;1496;51.404;7.232;2023-11-21T05:37:15;15.60;;;8.03;;
2972;SDS011;1496;51.404;7.232;2023-11-21T05:39:40;15.43;;;8.70;;
2972;SDS011;1496;51.404;7.232;2023-11-21T05:42:06;13.50;;;7.10;;
2972;SDS011;1496;51.404;7.232;2023-11-21T05:44:34;16.67;;;8.53;;
2972;SDS011;1496;51.404;7.232;2023-11-21T05:47:00;12.87;;;8.60;;
2972;SDS011;1496;51.404;7.232;2023-11-21T05:49:25;15.40;;;8.93;;
2972;SDS011;1496;51.404;7.232;2023-11-21T05:51:53;20.00;;;9.03;;
2972;SDS011;1496;51.404;7.232;2023-11-21T05:54:19;23.03;;;10.23;;
2972;SDS011;1496;51.404;7.232;2023-11-21T05:56:45;11.90;;;8.10;;
2972;SDS011;1496;51.404;7.232;2023-11-21T05:59:12;16.00;;;7.73;;
2972;SDS011;1496;51.404;7.232;2023-11-21T06:01:37;19.17;;;8.27;;
2972;SDS011;1496;51.404;7.232;2023-11-21T06:04:06;23.33;;;8.20;;
2972;SDS011;1496;51.404;7.232;2023-11-21T06:06:35;19.67;;;8.60;;
2972;SDS011;1496;51.404;7.232;2023-11-21T06:09:01;23.83;;;7.90;;
2972;SDS011;1496;51.404;7.232;2023-11-21T06:11:27;21.40;;;9.70;;
2972;SDS011;1496;51.404;7.232;2023-11-21T06:13:53;12.60;;;8.20;;
2972;SDS011;1496;51.404;7.232;2023-11-21T06:16:18;16.80;;;9.13;;
2972;SDS011;1496;51.404;7.232;2023-11-21T06:18:47;15.43;;;7.23;;
2972;SDS011;1496;51.404;7.232;2023-11-21T06:21:13;16.33;;;8.00;;
2972;SDS011;1496;51.404;7.232;2023-11-21T06:23:38;18.33;;;8.33;;
2972;SDS011;1496;51.404;7.232;2023-11-21T06:26:06;17.77;;;9.93;;
2972;SDS011;1496;51.404;7.232;2023-11-21T06:28:33;12.50;;;7.40;;
2972;SDS011;1496;51.404;7.232;2023-11-21T06:30:58;16.30;;;8.27;;
2972;SDS011;1496;51.404;7.232;2023-11-21T06:33:30;21.53;;;8.77;;
2972;SDS011;1496;51.404;7.232;2023-11-21T06:35:58;21.10;;;9.00;;
2972;SDS011;1496;51.404;7.232;2023-11-21T06:38:28;17.67;;;7.30;;
2972;SDS011;1496;51.404;7.232;2023-11-21T06:40:58;17.90;;;9.47;;
2972;SDS011;1496;51.404;7.232;2023-11-21T06:43:23;16.27;;;8.17;;
2972;SDS011;1496;51.404;7.232;2023-11-21T06:45:49;15.07;;;7.60;;
2972;SDS011;1496;51.404;7.232;2023-11-21T06:48:15;11.80;;;6.50;;
2972;SDS011;1496;51.404;7.232;2023-11-21T06:50:40;12.03;;;6.60;;
2972;SDS011;1496;51.404;7.232;2023-11-21T06:53:06;21.83;;;7.53;;
2972;SDS011;1496;51.404;7.232;2023-11-21T06:55:33;13.73;;;8.57;;
2972;SDS011;1496;51.404;7.232;2023-11-21T06:57:59;15.07;;;8.00;;
2972;SDS011;1496;51.404;7.232;2023-11-21T07:00:25;18.00;;;6.80;;
2972;SDS011;1496;51.404;7.232;2023-11-21T07:02:54;15.33;;;6.37;;
2972;SDS011;1496;51.404;7.232;2023-11-21T07:05:20;12.30;;;7.77;;
2972;SDS011;1496;51.404;7.232;2023-11-21T07:07:47;17.77;;;7.40;;
2972;SDS011;1496;51.404;7.232;2023-11-21T07:10:14;15.43;;;7.50;;
2972;SDS011;1496;51.404;7.232;2023-11-21T07:12:40;16.00;;;7.90;;
2972;SDS011;1496;51.404;7.232;2023-11-21T07:15:06;12.83;;;6.60;;
2972;SDS011;1496;51.404;7.232;2023-11-21T07:17:37;14.23;;;7.37;;
2972;SDS011;1496;51.404;7.232;2023-11-21T07:20:03;13.30;;;7.23;;
2972;SDS011;1496;51.404;7.232;2023-11-21T07:22:29;15.87;;;8.40;;
2972;SDS011;1496;51.404;7.232;2023-11-21T07:24:55;22.40;;;7.40;;
2972;SDS011;1496;51.404;7.232;2023-11-21T07:27:23;15.67;;;8.13;;
2972;SDS011;1496;51.404;7.232;2023-11-21T07:29:49;19.93;;;8.73;;
2972;SDS011;1496;51.404;7.232;2023-11-21T07:32:15;18.00;;;9.03;;
2972;SDS011;1496;51.404;7.232;2023-11-21T07:34:41;15.83;;;8.40;;
2972;SDS011;1496;51.404;7.232;2023-11-21T07:37:07;21.30;;;10.90;;
2972;SDS011;1496;51.404;7.232;2023-11-21T07:39:34;20.40;;;8.90;;
2972;SDS011;1496;51.404;7.232;2023-11-21T07:42:01;22.90;;;11.30;;
2972;SDS011;1496;51.404;7.232;2023-11-21T07:44:27;20.83;;;10.50;;
2972;SDS011;1496;51.404;7.232;2023-11-21T07:46:54;21.80;;;10.20;;
2972;SDS011;1496;51.404;7.232;2023-11-21T07:49:22;16.60;;;9.27;;
2972;SDS011;1496;51.404;7.232;2023-11-21T07:51:49;18.70;;;8.63;;
2972;SDS011;1496;51.404;7.232;2023-11-21T07:54:14;15.50;;;10.00;;
2972;SDS011;1496;51.404;7.232;2023-11-21T07:56:41;15.93;;;9.33;;
2972;SDS011;1496;51.404;7.232;2023-11-21T07:59:07;22.90;;;10.13;;
2972;SDS011;1496;51.404;7.232;2023-11-21T08:01:33;19.33;;;9.63;;
2972;SDS011;1496;51.404;7.232;2023-11-21T08:03:59;27.57;;;11.80;;
2972;SDS011;1496;51.404;7.232;2023-11-21T08:06:28;20.27;;;10.77;;
2972;SDS011;1496;51.404;7.232;2023-11-21T08:08:58;20.63;;;9.90;;
2972;SDS011;1496;51.404;7.232;2023-11-21T08:11:24;21.17;;;10.03;;
2972;SDS011;1496;51.404;7.232;2023-11-21T08:13:51;21.53;;;11.27;;
2972;SDS011;1496;51.404;7.232;2023-11-21T08:16:17;20.97;;;10.63;;
2972;SDS011;1496;51.404;7.232;2023-11-21T08:18:43;18.07;;;9.77;;
2972;SDS011;1496;51.404;7.232;2023-11-21T08:21:09;24.77;;;10.87;;
2972;SDS011;1496;51.404;7.232;2023-11-21T08:23:37;28.53;;;11.60;;
2972;SDS011;1496;51.404;7.232;2023-11-21T08:26:04;24.00;;;11.80;;
2972;SDS011;1496;51.404;7.232;2023-11-21T08:28:30;22.17;;;11.67;;
2972;SDS011;1496;51.404;7.232;2023-11-21T08:30:56;22.20;;;12.07;;
2972;SDS011;1496;51.404;7.232;2023-11-21T08:33:22;21.70;;;10.83;;
2972;SDS011;1496;51.404;7.232;2023-11-21T08:35:48;25.03;;;11.07;;
2972;SDS011;1496;51.404;7.232;2023-11-21T08:38:14;17.40;;;9.90;;
2972;SDS011;1496;51.404;7.232;2023-11-21T08:40:39;31.33;;;10.60;;
2972;SDS011;1496;51.404;7.232;2023-11-21T08:43:05;20.50;;;10.90;;
2972;SDS011;1496;51.404;7.232;2023-11-21T08:45:32;28.13;;;11.17;;
2972;SDS011;1496;51.404;7.232;2023-11-21T08:47:59;24.33;;;10.90;;
2972;SDS011;1496;51.404;7.232;2023-11-21T08:50:26;21.57;;;9.90;;
2972;SDS011;1496;51.404;7.232;2023-11-21T08:52:51;24.80;;;11.27;;
2972;SDS011;1496;51.404;7.232;2023-11-21T08:55:17;22.80;;;11.90;;
2972;SDS011;1496;51.404;7.232;2023-11-21T08:57:45;29.40;;;10.57;;
2972;SDS011;1496;51.404;7.232;2023-11-21T09:00:13;21.83;;;11.10;;
2972;SDS011;1496;51.404;7.232;2023-11-21T09:02:42;25.77;;;13.50;;
2972;SDS011;1496;51.404;7.232;2023-11-21T09:05:08;24.90;;;11.93;;
2972;SDS011;1496;51.404;7.232;2023-11-21T09:07:35;29.77;;;14.33;;
2972;SDS011;1496;51.404;7.232;2023-11-21T09:10:01;34.33;;;12.50;;
2972;SDS011;1496;51.404;7.232;2023-11-21T09:12:32;35.83;;;17.50;;
2972;SDS011;1496;51.404;7.232;2023-11-21T09:15:01;36.80;;;16.10;;
2972;SDS011;1496;51.404;7.232;2023-11-21T09:17:30;35.20;;;15.80;;
2972;SDS011;1496;51.404;7.232;2023-11-21T09:19:56;31.53;;;15.33;;
2972;SDS011;1496;51.404;7.232;2023-11-21T09:22:22;35.17;;;16.57;;
2972;SDS011;1496;51.404;7.232;2023-11-21T09:24:50;33.80;;;16.10;;
2972;SDS011;1496;51.404;7.232;2023-11-21T09:27:17;43.13;;;17.10;;
2972;SDS011;1496;51.404;7.232;2023-11-21T09:29:43;40.63;;;17.50;;
2972;SDS011;1496;51.404;7.232;2023-11-21T09:32:09;42.53;;;17.13;;
2972;SDS011;1496;51.404;7.232;2023-11-21T09:34:37;41.53;;;19.30;;
2972;SDS011;1496;51.404;7.232;2023-11-21T09:37:06;40.43;;;19.70;;
2972;SDS011;1496;51.404;7.232;2023-11-21T09:39:33;46.87;;;18.70;;
2972;SDS011;1496;51.404;7.232;2023-11-21T09:42:11;58.07;;;21.00;;
2972;SDS011;1496;51.404;7.232;2023-11-21T09:47:33;60.07;;;21.30;;
2972;SDS011;1496;51.404;7.232;2023-11-21T09:50:02;50.37;;;18.40;;
2972;SDS011;1496;51.404;7.232;2023-11-21T09:52:29;50.27;;;18.40;;
2972;SDS011;1496;51.404;7.232;2023-11-21T09:54:57;54.93;;;21.33;;
2972;SDS011;1496;51.404;7.232;2023-11-21T09:57:24;44.17;;;19.53;;
2972;SDS011;1496;51.404;7.232;2023-11-21T09:59:53;56.93;;;22.20;;
2972;SDS011;1496;51.404;7.232;2023-11-21T10:02:28;53.93;;;21.47;;
2972;SDS011;1496;51.404;7.232;2023-11-21T10:04:55;50.77;;;19.00;;
2972;SDS011;1496;51.404;7.232;2023-11-21T10:07:21;54.07;;;19.23;;
2972;SDS011;1496;51.404;7.232;2023-11-21T10:09:48;42.97;;;19.63;;
2972;SDS011;1496;51.404;7.232;2023-11-21T10:12:16;46.63;;;19.40;;
2972;SDS011;1496;51.404;7.232;2023-11-21T10:14:42;40.60;;;16.53;;
2972;SDS011;1496;51.404;7.232;2023-11-21T10:17:12;42.80;;;18.37;;
2972;SDS011;1496;51.404;7.232;2023-11-21T10:19:41;52.10;;;19.57;;
2972;SDS011;1496;51.404;7.232;2023-11-21T10:22:07;55.90;;;21.23;;
2972;SDS011;1496;51.404;7.232;2023-11-21T10:24:34;53.80;;;21.23;;
2972;SDS011;1496;51.404;7.232;2023-11-21T10:27:00;50.60;;;20.00;;
2972;SDS011;1496;51.404;7.232;2023-11-21T10:29:28;53.27;;;21.37;;
2972;SDS011;1496;51.404;7.232;2023-11-21T10:31:55;54.40;;;21.20;;
2972;SDS011;1496;51.404;7.232;2023-11-21T10:34:23;47.97;;;19.80;;
2972;SDS011;1496;51.404;7.232;2023-11-21T10:36:49;48.50;;;18.80;;
2972;SDS011;1496;51.404;7.232;2023-11-21T10:39:19;44.40;;;19.00;;
2972;SDS011;1496;51.404;7.232;2023-11-21T10:41:48;44.63;;;19.57;;
2972;SDS011;1496;51.404;7.232;2023-11-21T10:44:15;47.37;;;18.53;;
2972;SDS011;1496;51.404;7.232;2023-11-21T10:46:55;49.40;;;20.70;;
2972;SDS011;1496;51.404;7.232;2023-11-21T10:49:25;53.80;;;20.20;;
2972;SDS011;1496;51.404;7.232;2023-11-21T10:51:55;45.20;;;20.00;;
2972;SDS011;1496;51.404;7.232;2023-11-21T10:54:21;52.80;;;22.13;;
2972;SDS011;1496;51.404;7.232;2023-11-21T10:56:49;52.87;;;21.10;;
2972;SDS011;1496;51.404;7.232;2023-11-21T10:59:18;58.10;;;22.87;;
2972;SDS011;1496;51.404;7.232;2023-11-21T11:01:46;54.77;;;21.90;;
2972;SDS011;1496;51.404;7.232;2023-11-21T11:04:15;53.40;;;21.87;;
2972;SDS011;1496;51.404;7.232;2023-11-21T11:06:54;52.47;;;19.70;;
2972;SDS011;1496;51.404;7.232;2023-11-21T11:09:22;56.70;;;21.47;;
2972;SDS011;1496;51.404;7.232;2023-11-21T11:11:48;55.23;;;23.60;;
2972;SDS011;1496;51.404;7.232;2023-11-21T11:14:14;50.80;;;22.43;;
2972;SDS011;1496;51.404;7.232;2023-11-21T11:16:41;42.37;;;20.67;;
2972;SDS011;1496;51.404;7.232;2023-11-21T11:19:08;60.67;;;20.87;;
2972;SDS011;1496;51.404;7.232;2023-11-21T11:27:25;61.17;;;20.53;;
2972;SDS011;1496;51.404;7.232;2023-11-21T11:30:09;60.37;;;22.93;;
2972;SDS011;1496;51.404;7.232;2023-11-21T11:38:23;49.73;;;19.53;;
2972;SDS011;1496;51.404;7.232;2023-11-21T11:40:56;46.40;;;21.70;;
2972;SDS011;1496;51.404;7.232;2023-11-21T11:43:25;48.87;;;20.03;;
2972;SDS011;1496;51.404;7.232;2023-11-21T11:45:52;55.87;;;19.63;;
2972;SDS011;1496;51.404;7.232;2023-11-21T11:48:21;51.17;;;20.57;;
2972;SDS011;1496;51.404;7.232;2023-11-21T11:51:06;53.03;;;20.80;;
2972;SDS011;1496;51.404;7.232;2023-11-21T11:53:43;51.53;;;21.20;;
2972;SDS011;1496;51.404;7.232;2023-11-21T11:58:57;54.90;;;21.83;;
2972;SDS011;1496;51.404;7.232;2023-11-21T12:01:25;49.57;;;20.60;;
2972;SDS011;1496;51.404;7.232;2023-11-21T12:06:39;49.20;;;19.90;;
2972;SDS011;1496;51.404;7.232;2023-11-21T12:09:06;45.00;;;19.10;;
2972;SDS011;1496;51.404;7.232;2023-11-21T12:11:32;57.53;;;19.90;;
2972;SDS011;1496;51.404;7.232;2023-11-21T12:14:00;54.97;;;20.40;;
2972;SDS011;1496;51.404;7.232;2023-11-21T12:16:28;46.33;;;19.30;;
2972;SDS011;1496;51.404;7.232;2023-11-21T12:18:57;64.27;;;20.40;;
2972;SDS011;1496;51.404;7.232;2023-11-21T12:21:23;59.70;;;19.77;;
2972;SDS011;1496;51.404;7.232;2023-11-21T12:23:49;50.13;;;19.93;;
2972;SDS011;1496;51.404;7.232;2023-11-21T12:26:15;54.90;;;19.93;;
2972;SDS011;1496;51.404;7.232;2023-11-21T12:28:41;46.93;;;18.43;;
2972;SDS011;1496;51.404;7.232;2023-11-21T12:31:10;50.80;;;19.17;;
2972;SDS011;1496;51.404;7.232;2023-11-21T12:33:35;53.47;;;24.23;;
2972;SDS011;1496;51.404;7.232;2023-11-21T12:36:01;58.63;;;22.27;;
2972;SDS011;1496;51.404;7.232;2023-11-21T12:38:34;51.37;;;22.17;;
2972;SDS011;1496;51.404;7.232;2023-11-21T12:41:02;53.53;;;23.20;;
2972;SDS011;1496;51.404;7.232;2023-11-21T12:43:29;50.80;;;23.40;;
2972;SDS011;1496;51.404;7.232;2023-11-21T12:46:05;53.63;;;22.77;;
2972;SDS011;1496;51.404;7.232;2023-11-21T12:48:39;53.13;;;24.53;;
2972;SDS011;1496;51.404;7.232;2023-11-21T12:51:09;43.43;;;21.43;;
2972;SDS011;1496;51.404;7.232;2023-11-21T12:53:37;39.20;;;19.83;;
2972;SDS011;1496;51.404;7.232;2023-11-21T12:56:12;31.37;;;18.10;;
2972;SDS011;1496;51.404;7.232;2023-11-21T12:58:43;39.33;;;19.93;;
2972;SDS011;1496;51.404;7.232;2023-11-21T13:01:13;34.47;;;17.87;;
2972;SDS011;1496;51.404;7.232;2023-11-21T13:03:43;32.23;;;15.60;;
2972;SDS011;1496;51.404;7.232;2023-11-21T13:06:12;31.47;;;16.97;;
2972;SDS011;1496;51.404;7.232;2023-11-21T13:08:38;27.83;;;14.50;;
2972;SDS011;1496;51.404;7.232;2023-11-21T13:11:04;28.57;;;15.20;;
2972;SDS011;1496;51.404;7.232;2023-11-21T13:13:31;23.80;;;13.93;;
2972;SDS011;1496;51.404;7.232;2023-11-21T13:15:59;31.20;;;16.10;;
2972;SDS011;1496;51.404;7.232;2023-11-21T13:18:27;28.50;;;14.23;;
2972;SDS011;1496;51.404;7.232;2023-11-21T13:20:57;25.63;;;15.87;;
2972;SDS011;1496;51.404;7.232;2023-11-21T13:23:24;29.67;;;15.17;;
2972;SDS011;1496;51.404;7.232;2023-11-21T13:25:51;24.23;;;13.60;;
2972;SDS011;1496;51.404;7.232;2023-11-21T13:28:17;23.50;;;14.40;;
2972;SDS011;1496;51.404;7.232;2023-11-21T13:30:46;20.90;;;13.10;;
2972;SDS011;1496;51.404;7.232;2023-11-21T13:33:13;26.10;;;13.77;;
2972;SDS011;1496;51.404;7.232;2023-11-21T13:35:43;22.13;;;14.00;;
2972;SDS011;1496;51.404;7.232;2023-11-21T13:38:14;23.03;;;13.93;;
2972;SDS011;1496;51.404;7.232;2023-11-21T13:40:47;20.00;;;13.70;;
2972;SDS011;1496;51.404;7.232;2023-11-21T13:43:17;24.13;;;14.70;;
2972;SDS011;1496;51.404;7.232;2023-11-21T13:45:45;28.10;;;15.30;;
2972;SDS011;1496;51.404;7.232;2023-11-21T13:48:12;19.00;;;12.63;;
2972;SDS011;1496;51.404;7.232;2023-11-21T13:50:48;25.27;;;15.90;;
2972;SDS011;1496;51.404;7.232;2023-11-21T13:53:23;21.97;;;14.83;;
2972;SDS011;1496;51.404;7.232;2023-11-21T13:55:49;26.27;;;12.80;;
2972;SDS011;1496;51.404;7.232;2023-11-21T13:58:16;27.67;;;14.87;;
2972;SDS011;1496;51.404;7.232;2023-11-21T14:00:49;33.97;;;16.77;;
2972;SDS011;1496;51.404;7.232;2023-11-21T14:03:22;28.67;;;15.30;;
2972;SDS011;1496;51.404;7.232;2023-11-21T14:05:50;26.43;;;15.30;;
2972;SDS011;1496;51.404;7.232;2023-11-21T14:08:22;24.93;;;15.00;;
2972;SDS011;1496;51.404;7.232;2023-11-21T14:10:53;29.57;;;14.63;;
2972;SDS011;1496;51.404;7.232;2023-11-21T14:13:28;25.20;;;15.07;;
2972;SDS011;1496;51.404;7.232;2023-11-21T14:15:54;26.10;;;13.70;;
2972;SDS011;1496;51.404;7.232;2023-11-21T14:18:24;23.57;;;12.50;;
2972;SDS011;1496;51.404;7.232;2023-11-21T14:21:00;26.10;;;13.33;;
2972;SDS011;1496;51.404;7.232;2023-11-21T14:23:26;25.20;;;14.23;;
2972;SDS011;1496;51.404;7.232;2023-11-21T14:25:51;25.67;;;14.13;;
2972;SDS011;1496;51.404;7.232;2023-11-21T14:28:17;25.00;;;12.40;;
2972;SDS011;1496;51.404;7.232;2023-11-21T14:30:44;23.60;;;12.20;;
2972;SDS011;1496;51.404;7.232;2023-11-21T14:33:13;22.00;;;11.47;;
2972;SDS011;1496;51.404;7.232;2023-11-21T14:35:41;18.17;;;10.03;;
2972;SDS011;1496;51.404;7.232;2023-11-21T14:38:08;22.27;;;11.10;;
2972;SDS011;1496;51.404;7.232;2023-11-21T14:40:35;18.00;;;11.33;;
2972;SDS011;1496;51.404;7.232;2023-11-21T14:43:02;16.13;;;9.47;;
2972;SDS011;1496;51.404;7.232;2023-11-21T14:45:31;17.10;;;8.87;;
2972;SDS011;1496;51.404;7.232;2023-11-21T14:47:57;23.93;;;10.20;;
2972;SDS011;1496;51.404;7.232;2023-11-21T14:50:51;17.30;;;9.70;;
2972;SDS011;1496;51.404;7.232;2023-11-21T14:53:36;17.30;;;9.17;;
2972;SDS011;1496;51.404;7.232;2023-11-21T14:56:18;19.87;;;9.20;;
2972;SDS011;1496;51.404;7.232;2023-11-21T14:58:58;19.20;;;9.30;;
2972;SDS011;1496;51.404;7.232;2023-11-21T15:01:41;17.87;;;10.03;;
2972;SDS011;1496;51.404;7.232;2023-11-21T15:04:20;21.10;;;9.33;;
2972;SDS011;1496;51.404;7.232;2023-11-21T15:07:03;16.87;;;9.97;;
2972;SDS011;1496;51.404;7.232;2023-11-21T15:09:33;14.47;;;8.00;;
2972;SDS011;1496;51.404;7.232;2023-11-21T15:12:01;14.13;;;7.47;;
2972;SDS011;1496;51.404;7.232;2023-11-21T15:14:58;11.40;;;7.43;;
2972;SDS011;1496;51.404;7.232;2023-11-21T15:17:24;15.73;;;6.47;;
2972;SDS011;1496;51.404;7.232;2023-11-21T15:19:51;9.93;;;6.10;;